Time;durP1;ratioP1;P1;durP2;ratioP2;P2;SDS_P1;SDS_P2;PMS_P1;PMS_P2;Temp;Humidity;BMP_temperature;BMP_pressure;BME280_temperature;BME280_humidity;BME280_pressure;Samples;Min_cycle;Max_cycle;Signal;HPM_P1;HPM_P2
2024/02/10 00:00:16;;;;;;;6.25;4.20;;;;;;;10.55;56.60;98297.59;5050403;28;20505;-76
2024/02/10 00:02:44;;;;;;;6.57;3.88;;;;;;;10.54;56.70;98293.16;5043462;28;20051;-77
2024/02/10 00:05:14;;;;;;;6.90;3.63;;;;;;;10.54;56.76;98304.09;5043332;28;20507;-76
2024/02/10 00:07:45;;;;;;;7.70;3.88;;;;;;;10.53;56.63;98296.03;5032889;28;20056;-76
2024/02/10 00:10:15;;;;;;;5.63;3.92;;;;;;;10.55;56.93;98302.22;5041092;28;20049;-77
2024/02/10 00:12:44;;;;;;;6.50;4.10;;;;;;;10.52;56.89;98297.94;5043918;28;20137;-76
2024/02/10 00:15:13;;;;;;;6.20;4.40;;;;;;;10.53;56.57;98293.31;5040376;28;20049;-75
2024/02/10 00:17:41;;;;;;;7.25;4.32;;;;;;;10.51;56.99;98293.50;5049976;28;20142;-76
2024/02/10 00:20:13;;;;;;;7.65;4.13;;;;;;;10.53;56.53;98290.59;5051101;28;20043;-77
2024/02/10 00:22:41;;;;;;;6.90;4.10;;;;;;;10.50;56.94;98299.16;5050167;28;20497;-75
2024/02/10 00:25:09;;;;;;;5.85;3.90;;;;;;;10.51;56.85;98304.44;5033279;28;20060;-76
2024/02/10 00:27:40;;;;;;;7.65;3.80;;;;;;;10.53;56.71;98305.13;5049558;28;20531;-76
2024/02/10 00:30:09;;;;;;;7.57;4.28;;;;;;;10.51;56.62;98298.97;5033276;28;20068;-76
2024/02/10 00:32:37;;;;;;;5.97;4.13;;;;;;;10.52;56.71;98310.75;5049838;28;20045;-75
2024/02/10 00:35:06;;;;;;;7.75;4.38;;;;;;;10.52;56.85;98316.22;5033415;28;20041;-76
2024/02/10 00:37:35;;;;;;;7.00;4.68;;;;;;;10.52;56.72;98308.88;5051436;28;20500;-76
2024/02/10 00:40:04;;;;;;;6.65;4.53;;;;;;;10.50;56.75;98302.75;5035533;28;20079;-76
2024/02/10 00:42:32;;;;;;;5.80;4.13;;;;;;;10.52;56.70;98302.56;5030215;28;20045;-76
2024/02/10 00:45:03;;;;;;;5.13;3.88;;;;;;;10.52;57.25;98299.81;5043758;28;20095;-76
2024/02/10 00:47:31;;;;;;;5.75;4.15;;;;;;;10.50;57.15;98300.00;5029982;28;20741;-76
2024/02/10 00:50:01;;;;;;;6.20;3.78;;;;;;;10.51;57.09;98304.44;5031026;28;20044;-76
2024/02/10 00:52:29;;;;;;;6.85;3.75;;;;;;;10.49;57.15;98303.78;5046301;28;20052;-76
2024/02/10 00:54:57;;;;;;;6.35;3.85;;;;;;;10.49;57.11;98297.47;5114849;23;20527;-77
2024/02/10 00:57:28;;;;;;;5.60;4.13;;;;;;;10.49;56.94;98297.47;5022997;28;20045;-76
2024/02/10 00:59:57;;;;;;;5.30;3.40;;;;;;;10.48;57.17;98295.81;5044168;28;20558;-76
2024/02/10 01:02:26;;;;;;;6.28;4.25;;;;;;;10.48;57.10;98290.34;5022302;28;20088;-77
2024/02/10 01:04:55;;;;;;;6.75;3.88;;;;;;;10.45;56.86;98288.81;5047598;28;20048;-77
2024/02/10 01:07:24;;;;;;;6.18;3.90;;;;;;;10.45;57.00;98288.81;5046297;28;20048;-77
2024/02/10 01:09:53;;;;;;;6.05;3.60;;;;;;;10.43;56.98;98296.38;5041649;28;20056;-76
2024/02/10 01:12:21;;;;;;;5.70;3.45;;;;;;;10.43;56.93;98293.63;5030372;28;20132;-77
2024/02/10 01:14:50;;;;;;;6.75;4.25;;;;;;;10.42;57.08;98293.84;5037158;28;20072;-76
2024/02/10 01:17:18;;;;;;;6.15;3.80;;;;;;;10.40;57.06;98299.50;5029319;28;20095;-77
2024/02/10 01:19:49;;;;;;;6.05;3.88;;;;;;;10.42;57.10;98294.69;5025092;28;20041;-76
2024/02/10 01:22:22;;;;;;;5.60;3.70;;;;;;;10.41;57.19;98290.25;5046813;28;20052;-76
2024/02/10 01:24:53;;;;;;;6.72;3.63;;;;;;;10.39;57.12;98296.97;5038371;28;20503;-76
2024/02/10 01:27:25;;;;;;;5.80;3.63;;;;;;;10.38;56.96;98293.38;5030632;28;20527;-77
2024/02/10 01:29:55;;;;;;;4.93;3.40;;;;;;;10.39;57.58;98299.72;5046313;28;20037;-76
2024/02/10 01:32:23;;;;;;;5.80;3.53;;;;;;;10.37;57.29;98297.16;5059605;28;20044;-76
2024/02/10 01:34:53;;;;;;;6.18;3.15;;;;;;;10.40;57.19;98309.59;5044434;28;20045;-77
2024/02/10 01:37:22;;;;;;;5.53;3.30;;;;;;;10.38;57.07;98303.47;5064923;28;20044;-77
2024/02/10 01:39:53;;;;;;;5.30;3.40;;;;;;;10.36;57.13;98300.94;5066401;28;20081;-77
2024/02/10 01:42:37;;;;;;;5.22;3.08;;;;;;;10.36;57.23;98300.94;5056519;28;20041;-76
2024/02/10 01:45:08;;;;;;;5.40;3.67;;;;;;;10.35;57.37;98306.59;5066306;28;20059;-76
2024/02/10 01:47:38;;;;;;;5.55;3.38;;;;;;;10.35;57.43;98309.31;5073800;28;20039;-76
2024/02/10 01:50:08;;;;;;;6.22;3.13;;;;;;;10.34;57.26;98299.44;5073125;28;20048;-77
2024/02/10 01:52:38;;;;;;;4.95;3.42;;;;;;;10.32;57.40;98305.09;5059632;28;20052;-76
2024/02/10 01:55:09;;;;;;;5.28;3.30;;;;;;;10.33;57.20;98303.19;5055670;28;20059;-75
2024/02/10 01:57:38;;;;;;;5.13;3.22;;;;;;;10.32;57.17;98298.81;5052044;28;20040;-76
2024/02/10 02:00:13;;;;;;;5.50;3.30;;;;;;;10.33;57.19;98301.31;5060109;28;20055;-77
2024/02/10 02:02:42;;;;;;;5.45;2.85;;;;;;;10.31;57.30;98294.38;5044636;28;20512;-76
2024/02/10 02:05:11;;;;;;;6.65;3.13;;;;;;;10.33;57.71;98300.47;5071654;28;20437;-77
2024/02/10 02:07:39;;;;;;;5.32;2.97;;;;;;;10.32;57.38;98293.34;5059416;28;20044;-77
2024/02/10 02:10:08;;;;;;;6.28;3.40;;;;;;;10.32;57.25;98283.22;5056440;28;20044;-76
2024/02/10 02:12:47;;;;;;;4.90;3.28;;;;;;;10.36;58.23;98291.88;5068729;28;20044;-77
2024/02/10 02:15:17;;;;;;;4.47;2.90;;;;;;;10.33;57.72;98287.66;5075322;28;20143;-76
2024/02/10 02:17:45;;;;;;;5.25;3.28;;;;;;;10.34;57.94;98291.22;5057363;28;21188;-76
2024/02/10 02:20:14;;;;;;;4.65;2.70;;;;;;;10.35;57.44;98288.31;5077687;28;20105;-76
2024/02/10 02:22:48;;;;;;;5.70;3.03;;;;;;;10.36;57.93;98281.78;5083899;28;20135;-76
2024/02/10 02:25:17;;;;;;;5.75;3.10;;;;;;;10.34;57.76;98289.34;5049339;28;20126;-76
2024/02/10 02:27:45;;;;;;;4.03;2.42;;;;;;;10.35;57.63;98301.13;5074704;28;20044;-76
2024/02/10 02:30:14;;;;;;;5.10;2.65;;;;;;;10.35;57.87;98292.91;5048183;28;20159;-76
2024/02/10 02:32:42;;;;;;;5.07;2.80;;;;;;;10.34;57.30;98293.97;5065352;28;20097;-76
2024/02/10 02:35:10;;;;;;;3.40;2.45;;;;;;;10.34;57.23;98289.34;5052338;28;20045;-76
2024/02/10 02:37:40;;;;;;;4.22;2.70;;;;;;;10.34;57.34;98286.59;5062349;28;20044;-76
2024/02/10 02:40:11;;;;;;;4.00;2.53;;;;;;;10.36;57.78;98291.88;5064079;28;20040;-76
2024/02/10 02:42:40;;;;;;;4.38;2.88;;;;;;;10.34;57.78;98283.03;5076744;28;20410;-76
2024/02/10 02:45:10;;;;;;;4.32;2.90;;;;;;;10.36;57.37;98289.16;5051780;28;20375;-76
2024/02/10 02:47:39;;;;;;;4.60;2.90;;;;;;;10.34;57.58;98281.13;5048084;28;20036;-76
2024/02/10 02:50:09;;;;;;;4.25;2.47;;;;;;;10.36;57.18;98279.06;5053799;28;20074;-76
2024/02/10 02:52:37;;;;;;;5.32;2.58;;;;;;;10.35;57.27;98271.06;5057525;28;20051;-76
2024/02/10 02:55:10;;;;;;;4.38;2.58;;;;;;;10.35;57.61;98274.63;5066348;28;20045;-76
2024/02/10 02:57:42;;;;;;;4.65;2.58;;;;;;;10.35;57.81;98271.06;5062769;28;20110;-76
2024/02/10 03:00:11;;;;;;;4.50;2.35;;;;;;;10.35;57.24;98271.91;5049846;28;20100;-76
2024/02/10 03:02:41;;;;;;;4.43;2.47;;;;;;;10.35;57.09;98263.69;5071453;28;20572;-76
2024/02/10 03:05:11;;;;;;;3.78;2.30;;;;;;;10.35;57.59;98260.97;5067104;28;20392;-76
2024/02/10 03:07:45;;;;;;;3.60;2.25;;;;;;;10.36;57.54;98257.19;5050063;28;20044;-76
2024/02/10 03:10:14;;;;;;;3.63;2.00;;;;;;;10.36;57.35;98262.66;5052308;28;20044;-76
2024/02/10 03:12:46;;;;;;;4.43;2.55;;;;;;;10.36;57.26;98253.63;5063365;28;20586;-76
2024/02/10 03:15:14;;;;;;;3.60;2.08;;;;;;;10.35;57.53;98257.38;5046285;28;20041;-76
2024/02/10 03:17:46;;;;;;;3.60;2.60;;;;;;;10.35;57.46;98258.22;5052574;28;20044;-76
2024/02/10 03:20:23;;;;;;;4.03;1.92;;;;;;;10.33;57.42;98260.31;5049233;28;20403;-76
2024/02/10 03:22:54;;;;;;;3.35;2.17;;;;;;;10.32;57.57;98264.06;5048788;28;20040;-76
2024/02/10 03:25:26;;;;;;;3.15;1.90;;;;;;;10.32;57.64;98261.34;5069753;28;20090;-76
2024/02/10 03:27:56;;;;;;;3.45;1.80;;;;;;;10.30;57.26;98257.97;5045697;28;20428;-76
2024/02/10 03:30:24;;;;;;;3.65;1.80;;;;;;;10.30;57.37;98254.41;5061406;28;20033;-76
2024/02/10 03:32:53;;;;;;;2.83;1.58;;;;;;;10.30;57.52;98254.41;5051955;28;20075;-76
2024/02/10 03:35:21;;;;;;;3.42;1.80;;;;;;;10.29;57.07;98255.44;5051152;28;20051;-76
2024/02/10 03:37:49;;;;;;;3.40;1.70;;;;;;;10.29;57.35;98253.56;5060918;28;20098;-76
2024/02/10 03:40:20;;;;;;;3.10;1.63;;;;;;;10.29;57.41;98249.97;5054665;28;20047;-76
2024/02/10 03:42:48;;;;;;;3.17;1.70;;;;;;;10.28;57.06;98251.84;5043069;28;20051;-76
2024/02/10 03:45:18;;;;;;;4.80;1.90;;;;;;;10.29;57.08;98255.44;5050837;28;20084;-76
2024/02/10 03:47:50;;;;;;;2.80;1.45;;;;;;;10.27;57.38;98250.16;5068148;28;20466;-76
2024/02/10 03:50:18;;;;;;;2.58;1.70;;;;;;;10.23;56.90;98241.50;5071808;28;20051;-76
2024/02/10 03:52:47;;;;;;;3.03;1.48;;;;;;;10.25;56.95;98244.03;5065630;28;20419;-76
2024/02/10 03:55:17;;;;;;;4.20;2.20;;;;;;;10.24;56.86;98248.66;5080083;28;20415;-76
2024/02/10 03:57:45;;;;;;;2.30;1.42;;;;;;;10.24;57.17;98245.06;5077475;28;20688;-76
2024/02/10 04:00:20;;;;;;;2.28;1.40;;;;;;;10.23;57.23;98246.97;5058198;28;20285;-75
2024/02/10 04:02:50;;;;;;;2.28;1.40;;;;;;;10.23;57.13;98255.16;5070192;28;20048;-76
2024/02/10 04:05:18;;;;;;;2.38;1.50;;;;;;;10.21;56.92;98259.16;5044592;28;20069;-76
2024/02/10 04:07:49;;;;;;;2.45;1.55;;;;;;;10.20;56.71;98249.25;5078863;28;20282;-76
2024/02/10 04:10:18;;;;;;;2.87;1.57;;;;;;;10.17;57.21;98252.38;5073290;28;20106;-76
2024/02/10 04:12:47;;;;;;;2.85;1.70;;;;;;;10.17;56.88;98250.47;5055333;28;20044;-75
2024/02/10 04:15:15;;;;;;;3.60;1.70;;;;;;;10.16;56.72;98254.25;5058206;28;20098;-76
2024/02/10 04:17:48;;;;;;;1.88;1.27;;;;;;;10.18;57.00;98254.06;5054321;28;20057;-76
2024/02/10 04:20:19;;;;;;;2.50;1.42;;;;;;;10.16;56.98;98256.13;5056232;28;20043;-75
2024/02/10 04:22:48;;;;;;;3.17;1.52;;;;;;;10.13;56.72;98251.94;5063370;28;20302;-76
2024/02/10 04:25:16;;;;;;;3.13;1.50;;;;;;;10.12;56.88;98255.69;5065998;28;20054;-76
2024/02/10 04:27:44;;;;;;;2.33;1.48;;;;;;;10.11;56.81;98250.44;5090280;28;20059;-76
2024/02/10 04:30:13;;;;;;;2.28;1.38;;;;;;;10.10;56.87;98248.72;5078101;28;20056;-75
2024/02/10 04:32:42;;;;;;;2.67;1.52;;;;;;;10.09;56.54;98247.88;5056628;28;20040;-75
2024/02/10 04:35:10;;;;;;;3.22;1.65;;;;;;;10.07;56.51;98255.41;5079637;28;20383;-76
2024/02/10 04:37:42;;;;;;;3.13;1.58;;;;;;;10.07;56.58;98252.69;5061356;28;20054;-76
2024/02/10 04:40:12;;;;;;;3.03;1.63;;;;;;;10.06;57.11;98258.38;5077232;28;20044;-73
2024/02/10 04:42:40;;;;;;;2.83;1.52;;;;;;;10.05;56.63;98256.69;5061872;28;20040;-76
2024/02/10 04:45:08;;;;;;;2.67;1.50;;;;;;;10.03;56.95;98254.13;5075779;28;20079;-76
2024/02/10 04:47:36;;;;;;;2.55;1.48;;;;;;;10.03;56.50;98247.81;5055872;28;20094;-76
2024/02/10 04:50:05;;;;;;;2.42;1.40;;;;;;;10.02;56.73;98257.06;5060961;28;20559;-76
2024/02/10 04:52:34;;;;;;;2.85;1.50;;;;;;;10.01;56.46;98255.34;5074306;28;20039;-75
2024/02/10 04:55:04;;;;;;;2.67;1.70;;;;;;;9.99;56.75;98255.53;5075947;28;20044;-75
2024/02/10 04:57:32;;;;;;;2.53;1.60;;;;;;;9.98;56.74;98248.41;5084144;28;20052;-76
2024/02/10 05:00:00;;;;;;;2.45;1.55;;;;;;;9.96;56.35;98249.63;5065147;28;20033;-76
2024/02/10 05:02:28;;;;;;;2.88;1.70;;;;;;;9.95;56.71;98259.72;5058725;28;20059;-75
2024/02/10 05:04:56;;;;;;;3.10;1.70;;;;;;;9.94;56.43;98254.44;5081814;28;20053;-76
2024/02/10 05:07:25;;;;;;;3.53;1.55;;;;;;;9.93;56.38;98255.47;5064031;28;20083;-75
2024/02/10 05:09:54;;;;;;;3.75;1.65;;;;;;;9.91;56.41;98252.94;5056202;28;20095;-74
2024/02/10 05:12:25;;;;;;;3.15;1.52;;;;;;;9.91;56.40;98260.28;5062291;28;20051;-73
2024/02/10 05:14:54;;;;;;;4.00;1.60;;;;;;;9.88;56.31;98257.97;5046008;28;20040;-74
2024/02/10 05:17:22;;;;;;;2.58;1.70;;;;;;;9.88;56.65;98260.69;5048715;28;20086;-74
2024/02/10 05:19:50;;;;;;;2.80;1.70;;;;;;;9.87;56.76;98257.09;5050453;28;20053;-74
2024/02/10 05:22:18;;;;;;;4.10;1.80;;;;;;;9.86;56.79;98255.41;5055704;28;20495;-74
2024/02/10 05:24:47;;;;;;;3.35;1.90;;;;;;;9.85;56.67;98253.72;5074150;28;20566;-74
2024/02/10 05:27:15;;;;;;;2.67;1.60;;;;;;;9.83;56.39;98262.09;5078028;28;20135;-75
2024/02/10 05:29:45;;;;;;;2.85;1.70;;;;;;;9.83;56.59;98264.84;5060860;28;20412;-74
2024/02/10 05:32:13;;;;;;;3.30;1.70;;;;;;;9.80;56.27;98259.78;5045789;28;20044;-75
2024/02/10 05:34:48;;;;;;;2.28;1.52;;;;;;;9.80;56.26;98256.19;5051153;28;20135;-75
2024/02/10 05:37:16;;;;;;;3.40;2.08;;;;;;;9.78;56.36;98259.09;5067678;28;20048;-75
2024/02/10 05:39:44;;;;;;;2.78;1.80;;;;;;;9.77;56.57;98262.03;5063409;28;20093;-74
2024/02/10 05:42:13;;;;;;;2.42;1.70;;;;;;;9.76;56.21;98266.66;5061700;28;20151;-75
2024/02/10 05:44:41;;;;;;;2.58;1.40;;;;;;;9.75;56.29;98267.69;5055833;28;20037;-75
2024/02/10 05:47:11;;;;;;;2.65;1.63;;;;;;;9.75;56.52;98267.69;5065646;28;20078;-75
2024/02/10 05:49:41;;;;;;;3.30;1.90;;;;;;;9.73;56.34;98272.50;5058668;28;20071;-76
2024/02/10 05:52:09;;;;;;;2.90;1.85;;;;;;;9.72;56.15;98275.44;5069461;28;20407;-76
2024/02/10 05:54:40;;;;;;;2.58;1.73;;;;;;;9.70;56.21;98278.34;5053970;28;20138;-76
2024/02/10 05:57:18;;;;;;;3.38;1.95;;;;;;;9.68;56.08;98277.69;5083883;28;20048;-76
2024/02/10 05:59:46;;;;;;;3.60;1.80;;;;;;;9.67;56.78;98275.13;5043018;28;20076;-75
2024/02/10 06:02:16;;;;;;;3.13;1.90;;;;;;;9.67;56.31;98270.53;5068932;28;20329;-75
2024/02/10 06:04:44;;;;;;;3.78;2.00;;;;;;;9.66;56.58;98273.47;5085371;28;20051;-75
2024/02/10 06:07:16;;;;;;;3.10;2.03;;;;;;;9.64;56.86;98283.72;5057369;28;20032;-73
2024/02/10 06:09:44;;;;;;;3.35;1.85;;;;;;;9.61;56.27;98274.03;5047854;28;20048;-76
2024/02/10 06:12:14;;;;;;;3.47;2.20;;;;;;;9.63;56.40;98265.66;5066989;28;20045;-75
2024/02/10 06:14:43;;;;;;;3.50;2.00;;;;;;;9.62;56.60;98277.59;5075291;28;20071;-76
2024/02/10 06:17:11;;;;;;;3.03;2.10;;;;;;;9.61;56.40;98282.22;5050754;28;20041;-75
2024/02/10 06:19:41;;;;;;;3.70;2.33;;;;;;;9.63;56.36;98285.63;5052265;28;20048;-76
2024/02/10 06:22:09;;;;;;;3.40;2.00;;;;;;;9.60;56.80;98288.72;5068973;28;20044;-76
2024/02/10 06:24:37;;;;;;;3.55;1.92;;;;;;;9.60;56.83;98285.13;5044829;28;20090;-75
2024/02/10 06:27:05;;;;;;;3.70;2.25;;;;;;;9.62;56.25;98288.53;5053311;28;20067;-76
2024/02/10 06:29:34;;;;;;;3.30;2.08;;;;;;;9.60;56.40;98290.59;5074115;28;20071;-76
2024/02/10 06:32:03;;;;;;;3.88;2.45;;;;;;;9.59;56.43;98289.75;5071702;28;20101;-75
2024/02/10 06:34:31;;;;;;;3.55;2.42;;;;;;;9.59;56.78;98300.66;5067717;28;20086;-75
2024/02/10 06:37:02;;;;;;;3.97;2.50;;;;;;;9.60;56.31;98296.06;5050212;28;20045;-75
2024/02/10 06:39:30;;;;;;;4.45;2.30;;;;;;;9.59;56.72;98299.81;5069987;28;20040;-75
2024/02/10 06:41:59;;;;;;;4.10;2.33;;;;;;;9.57;55.93;98297.31;5058699;28;20458;-75
2024/02/10 06:44:28;;;;;;;4.32;1.98;;;;;;;9.59;56.06;98303.41;5055819;28;20135;-75
2024/02/10 06:46:58;;;;;;;3.70;2.00;;;;;;;9.56;56.60;98305.69;5043867;28;20068;-75
2024/02/10 06:49:30;;;;;;;;;;;;;;;9.31;57.12;98313.28;5054135;28;20050;-75
2024/02/10 06:52:02;;;;;;;3.35;2.08;;;;;;;9.51;56.43;98310.84;5069276;28;19920;-76
2024/02/10 06:54:30;;;;;;;3.17;2.10;;;;;;;9.51;56.04;98310.84;5075301;28;20052;-75
2024/02/10 06:56:58;;;;;;;3.72;1.90;;;;;;;9.51;56.41;98319.03;5056966;28;20120;-75
2024/02/10 06:59:26;;;;;;;3.67;2.13;;;;;;;9.49;56.25;98321.97;5053780;28;20495;-75
2024/02/10 07:01:55;;;;;;;4.03;2.00;;;;;;;9.48;56.30;98324.91;5042433;28;20036;-75
2024/02/10 07:04:24;;;;;;;3.17;2.00;;;;;;;9.46;56.11;98325.94;5048799;28;20139;-75
2024/02/10 07:06:53;;;;;;;3.10;2.10;;;;;;;9.45;56.26;98326.09;5041453;28;20040;-76
2024/02/10 07:09:23;;;;;;;3.38;2.08;;;;;;;9.45;56.53;98331.56;5059900;28;20080;-75
2024/02/10 07:11:51;;;;;;;3.30;2.00;;;;;;;9.43;56.46;98337.22;5068411;28;20056;-75
2024/02/10 07:14:19;;;;;;;3.88;1.90;;;;;;;9.42;56.19;98340.97;5063167;28;20041;-75
2024/02/10 07:16:47;;;;;;;4.15;2.38;;;;;;;9.41;56.12;98342.00;5064381;28;20552;-75
2024/02/10 07:19:15;;;;;;;3.40;2.10;;;;;;;9.41;56.14;98352.09;5045607;28;20614;-75
2024/02/10 07:21:45;;;;;;;4.00;2.05;;;;;;;9.40;56.55;98348.53;5055673;28;20065;-75
2024/02/10 07:24:13;;;;;;;3.10;2.00;;;;;;;9.41;56.69;98354.84;5047041;28;20267;-75
2024/02/10 07:26:43;;;;;;;3.67;2.20;;;;;;;9.42;56.63;98348.31;5056523;28;20044;-76
2024/02/10 07:29:11;;;;;;;3.25;2.15;;;;;;;9.40;56.99;98355.88;5044612;28;20045;-76
2024/02/10 07:31:39;;;;;;;3.35;2.10;;;;;;;9.41;56.69;98366.56;5060274;28;20087;-75
2024/02/10 07:34:07;;;;;;;3.92;2.10;;;;;;;9.43;56.74;98364.50;5062956;28;20055;-75
2024/02/10 07:36:37;;;;;;;3.65;2.30;;;;;;;9.43;57.07;98361.78;5057125;28;20072;-75
2024/02/10 07:39:07;;;;;;;3.88;2.20;;;;;;;9.45;56.41;98365.19;5049484;28;20032;-75
2024/02/10 07:41:38;;;;;;;4.20;2.20;;;;;;;9.46;56.83;98366.88;5035325;28;20061;-75
2024/02/10 07:44:07;;;;;;;5.80;2.45;;;;;;;9.50;56.97;98361.03;5072130;28;20052;-74
2024/02/10 07:46:35;;;;;;;3.90;2.22;;;;;;;9.49;56.99;98364.81;5071071;28;20043;-75
2024/02/10 07:49:04;;;;;;;3.83;2.30;;;;;;;9.50;56.65;98367.34;5063802;28;20052;-75
2024/02/10 07:51:33;;;;;;;3.75;2.30;;;;;;;9.53;56.61;98368.84;5053155;28;20044;-75
2024/02/10 07:54:01;;;;;;;3.45;2.20;;;;;;;9.53;56.99;98364.25;5064356;28;20075;-75
2024/02/10 07:56:29;;;;;;;3.78;2.45;;;;;;;9.55;57.10;98381.28;5071673;28;20032;-75
2024/02/10 07:59:00;;;;;;;3.78;2.13;;;;;;;9.57;56.83;98378.38;5074397;28;20041;-75
2024/02/10 08:01:30;;;;;;;4.57;2.53;;;;;;;9.58;57.00;98377.31;5045922;28;20523;-75
2024/02/10 08:03:58;;;;;;;4.53;2.58;;;;;;;9.60;57.15;98375.25;5042239;28;20095;-75
2024/02/10 08:06:27;;;;;;;4.47;2.30;;;;;;;9.62;57.08;98371.31;5061734;28;20052;-75
2024/02/10 08:08:57;;;;;;;3.67;2.28;;;;;;;9.65;57.01;98375.53;5067486;28;20103;-76
2024/02/10 08:11:27;;;;;;;4.20;2.33;;;;;;;9.67;57.35;98378.91;5070442;28;20055;-75
2024/02/10 08:13:55;;;;;;;3.33;2.17;;;;;;;9.69;57.03;98383.16;5059322;28;20070;-75
2024/02/10 08:16:27;;;;;;;3.55;2.22;;;;;;;9.71;57.51;98382.97;5043744;28;20056;-75
2024/02/10 08:18:57;;;;;;;3.80;2.30;;;;;;;9.73;57.57;98384.50;5050040;28;20043;-74
2024/02/10 08:21:26;;;;;;;3.25;2.17;;;;;;;9.76;57.15;98389.56;5069526;28;20051;-75
2024/02/10 08:23:57;;;;;;;3.40;1.98;;;;;;;9.79;57.07;98388.34;5068834;28;20102;-75
2024/02/10 08:26:27;;;;;;;3.67;2.35;;;;;;;9.82;57.25;98385.25;5055211;28;20056;-75
2024/02/10 08:28:58;;;;;;;3.58;2.22;;;;;;;9.82;57.44;98377.88;5036848;28;20385;-74
2024/02/10 08:31:30;;;;;;;3.50;2.33;;;;;;;9.83;57.46;98385.03;5070253;28;20071;-75
2024/02/10 08:33:59;;;;;;;3.30;2.10;;;;;;;9.90;57.59;98381.56;5063756;28;20068;-75
2024/02/10 08:36:28;;;;;;;4.30;2.20;;;;;;;9.90;57.37;98385.13;5050724;28;20131;-75
2024/02/10 08:39:03;;;;;;;3.88;1.95;;;;;;;9.94;57.34;98385.59;5066123;28;20036;-75
2024/02/10 08:41:33;;;;;;;4.40;2.15;;;;;;;9.96;57.47;98378.06;5051580;28;20047;-75
2024/02/10 08:44:01;;;;;;;3.90;2.30;;;;;;;9.97;56.96;98379.75;5064077;28;20048;-75
2024/02/10 08:46:29;;;;;;;4.20;2.15;;;;;;;9.99;57.38;98383.97;5040639;28;20118;-75
2024/02/10 08:48:57;;;;;;;3.95;2.20;;;;;;;10.02;56.93;98388.22;5055254;28;20033;-74
2024/02/10 08:51:27;;;;;;;4.00;2.05;;;;;;;10.05;57.11;98383.22;5064077;28;20033;-75
2024/02/10 08:53:56;;;;;;;2.50;1.73;;;;;;;10.05;57.25;98379.66;5039769;28;20490;-75
2024/02/10 08:56:26;;;;;;;3.33;1.75;;;;;;;10.09;56.98;98376.31;5050644;28;20060;-74
2024/02/10 08:58:58;;;;;;;3.45;2.10;;;;;;;10.10;57.08;98371.72;5060085;28;20094;-75
2024/02/10 09:01:27;;;;;;;3.55;2.10;;;;;;;10.10;57.31;98374.44;5050906;28;20579;-73
2024/02/10 09:03:56;;;;;;;3.08;1.88;;;;;;;10.13;57.13;98374.91;5065261;28;20478;-75
2024/02/10 09:06:24;;;;;;;3.30;2.00;;;;;;;10.16;57.11;98377.25;5050927;28;20054;-75
2024/02/10 09:08:54;;;;;;;4.00;2.20;;;;;;;10.21;57.34;98383.00;5069826;28;20037;-74
2024/02/10 09:11:22;;;;;;;3.45;1.90;;;;;;;10.20;57.22;98375.84;5069559;28;20060;-75
2024/02/10 09:13:51;;;;;;;3.17;2.00;;;;;;;10.25;56.86;98367.03;5048552;28;20040;-75
2024/02/10 09:16:20;;;;;;;3.67;1.90;;;;;;;10.28;56.83;98366.66;5069379;28;20032;-75
2024/02/10 09:18:48;;;;;;;3.78;1.80;;;;;;;10.32;56.90;98375.34;5049755;28;20720;-75
2024/02/10 09:21:19;;;;;;;3.47;1.98;;;;;;;10.35;57.33;98370.31;5045381;28;20061;-75
2024/02/10 09:23:48;;;;;;;3.97;2.20;;;;;;;10.38;56.85;98366.38;5060558;28;20056;-75
2024/02/10 09:26:18;;;;;;;3.17;1.90;;;;;;;10.43;56.65;98367.47;5053043;28;20064;-75
2024/02/10 09:28:46;;;;;;;3.45;1.70;;;;;;;10.45;57.12;98375.47;5052278;28;20068;-75
2024/02/10 09:31:15;;;;;;;3.83;1.90;;;;;;;10.50;56.99;98378.47;5048802;28;20047;-75
2024/02/10 09:33:48;;;;;;;4.22;2.10;;;;;;;10.51;57.38;98378.28;5069236;28;20138;-71
2024/02/10 09:36:16;;;;;;;2.67;1.80;;;;;;;10.60;56.82;98381.78;5069356;28;20083;-75
2024/02/10 09:38:45;;;;;;;3.90;1.90;;;;;;;10.65;57.35;98378.47;5069913;28;20040;-75
2024/02/10 09:41:13;;;;;;;3.03;1.77;;;;;;;10.71;56.66;98384.00;5068752;28;20120;-75
2024/02/10 09:43:46;;;;;;;3.35;1.90;;;;;;;10.76;56.57;98381.50;5069261;28;20040;-75
2024/02/10 09:46:14;;;;;;;3.08;1.83;;;;;;;10.78;56.60;98378.59;5053911;28;20040;-76
2024/02/10 09:48:45;;;;;;;3.63;1.90;;;;;;;10.85;56.86;98379.50;5060829;28;20033;-76
2024/02/10 09:51:13;;;;;;;3.67;1.88;;;;;;;10.89;56.30;98384.38;5042032;28;20570;-76
2024/02/10 09:53:41;;;;;;;2.92;1.63;;;;;;;10.94;56.68;98379.16;5049697;28;20044;-76
2024/02/10 09:56:12;;;;;;;3.67;2.03;;;;;;;10.97;56.52;98383.41;5054440;28;20037;-76
2024/02/10 09:58:44;;;;;;;2.97;1.80;;;;;;;11.00;56.13;98383.00;5061483;28;20391;-76
2024/02/10 10:01:13;;;;;;;2.80;1.60;;;;;;;11.05;56.30;98375.06;5060729;28;20041;-76
2024/02/10 10:03:41;;;;;;;2.72;1.70;;;;;;;11.09;55.92;98375.47;5059395;28;20446;-76
2024/02/10 10:06:10;;;;;;;3.28;1.92;;;;;;;11.12;55.91;98375.94;5070416;28;20044;-75
2024/02/10 10:08:39;;;;;;;3.95;1.85;;;;;;;11.15;56.13;98374.69;5067140;28;20036;-75
2024/02/10 10:11:07;;;;;;;2.45;1.65;;;;;;;11.19;55.70;98370.53;5041001;28;20044;-75
2024/02/10 10:13:37;;;;;;;2.80;1.60;;;;;;;11.23;56.04;98371.78;5066993;28;20046;-76
2024/02/10 10:16:10;;;;;;;3.80;1.80;;;;;;;11.28;55.17;98381.13;5063742;28;20056;-75
2024/02/10 10:18:39;;;;;;;2.47;1.70;;;;;;;11.31;55.76;98379.84;5049541;28;20064;-75
2024/02/10 10:21:10;;;;;;;2.60;1.67;;;;;;;11.35;55.85;98381.16;5047779;28;20048;-75
2024/02/10 10:23:38;;;;;;;2.40;1.55;;;;;;;11.37;56.12;98376.34;5042877;28;20037;-76
2024/02/10 10:26:06;;;;;;;3.40;1.80;;;;;;;11.41;55.85;98377.63;5070791;28;20530;-75
2024/02/10 10:28:34;;;;;;;3.00;1.70;;;;;;;11.45;55.46;98383.56;5067709;28;20075;-75
2024/02/10 10:31:04;;;;;;;3.15;1.60;;;;;;;11.48;55.46;98374.94;5049620;28;20056;-76
2024/02/10 10:33:35;;;;;;;2.90;1.63;;;;;;;11.51;55.27;98371.78;5069739;28;20044;-76
2024/02/10 10:36:05;;;;;;;3.83;1.90;;;;;;;11.53;55.51;98376.03;5051375;28;20047;-76
2024/02/10 10:38:34;;;;;;;2.85;1.90;;;;;;;11.57;55.45;98376.47;5067100;28;20068;-76
2024/02/10 10:41:04;;;;;;;2.75;1.60;;;;;;;11.61;54.84;98377.81;5066668;28;20056;-76
2024/02/10 10:43:34;;;;;;;3.60;1.92;;;;;;;11.63;55.25;98383.94;5039345;28;20565;-75
2024/02/10 10:46:02;;;;;;;2.30;1.58;;;;;;;11.67;55.08;98379.72;5068609;28;20419;-76
2024/02/10 10:48:34;;;;;;;3.13;1.90;;;;;;;11.68;55.01;98382.28;5050185;28;20126;-76
2024/02/10 10:51:07;;;;;;;3.05;2.22;;;;;;;11.73;54.29;98379.75;5063425;28;20209;-76
2024/02/10 10:53:36;;;;;;;2.90;1.70;;;;;;;11.77;54.66;98387.59;5065446;28;20144;-77
2024/02/10 10:56:08;;;;;;;3.42;2.00;;;;;;;11.79;54.69;98383.59;5051118;28;20048;-77
2024/02/10 10:58:44;;;;;;;3.13;1.85;;;;;;;11.84;53.95;98381.09;5070121;28;20044;-76
2024/02/10 11:01:15;;;;;;;2.65;1.80;;;;;;;11.87;54.96;98379.84;5069915;28;20048;-76
2024/02/10 11:03:45;;;;;;;2.65;1.60;;;;;;;11.87;55.07;98375.22;5059499;28;20447;-76
2024/02/10 11:06:15;;;;;;;2.83;1.70;;;;;;;11.94;54.55;98384.31;5044580;28;20504;-76
2024/02/10 11:08:45;;;;;;;3.20;1.90;;;;;;;11.95;54.10;98374.19;5043061;28;20318;-77
2024/02/10 11:11:14;;;;;;;3.13;1.80;;;;;;;11.97;54.43;98370.19;5064064;28;20033;-77
2024/02/10 11:13:42;;;;;;;3.03;1.65;;;;;;;11.97;53.88;98364.69;5049026;28;20270;-76
2024/02/10 11:16:12;;;;;;;2.30;1.45;;;;;;;12.01;53.88;98362.41;5050543;28;20044;-76
2024/02/10 11:18:43;;;;;;;2.85;1.65;;;;;;;12.02;54.16;98343.03;5054792;28;20040;-77
2024/02/10 11:21:21;;;;;;;2.88;1.85;;;;;;;12.03;52.94;98341.97;5063896;28;20073;-76
2024/02/10 11:23:59;;;;;;;3.15;1.90;;;;;;;12.05;52.81;98339.84;5054915;28;20127;-77
2024/02/10 11:26:31;;;;;;;2.72;1.60;;;;;;;12.04;53.87;98326.38;5053598;28;20075;-77
2024/02/10 11:29:00;;;;;;;2.55;1.48;;;;;;;12.06;53.33;98322.34;5072390;28;20040;-77
2024/02/10 11:31:29;;;;;;;2.92;1.60;;;;;;;12.07;53.93;98325.94;5074044;28;20051;-76
2024/02/10 11:34:04;;;;;;;2.80;1.80;;;;;;;12.11;53.04;98321.75;5040998;28;20044;-77
2024/02/10 11:36:36;;;;;;;3.25;1.60;;;;;;;12.11;53.58;98319.88;5069833;28;20522;-76
2024/02/10 11:39:07;;;;;;;2.17;1.50;;;;;;;12.12;53.30;98317.97;5046566;28;20435;-77
2024/02/10 11:41:35;;;;;;;2.70;1.40;;;;;;;12.13;53.41;98314.16;5068237;28;20135;-76
2024/02/10 11:44:05;;;;;;;2.63;1.70;;;;;;;12.15;53.55;98306.56;5075091;28;20051;-77
2024/02/10 11:46:33;;;;;;;2.28;1.50;;;;;;;12.17;53.35;98309.09;5073088;28;20032;-74